Airfield :
LOGIN :

Register | Disclaimer

   EN    FR    IT 

 










Legend :    VFR   Marginal VFR   IFR   Intensive IFR   Very Intensive IFR
Visi :
Ceiling :
>= 8 km
>= 3000ft
5 to 8 km
1000 to 3000 ft
1500m to 5 km
500 to 1000 ft
800 to 1500m
200 to 500 ft
< 800m
< 200 ft
Symbols :   Thunderstorms  Fog  Heavy snow  Heavy precipitations  Wind > 20 kt
SIGMETs :     Misc.  Thunderstorms  Icing  Turbulence  Mountain Waves  Volcanic Ashes







- Airport Elevation : 14 ft
- IATA code : BRE


EDDW - Bremen Neuenland

CURRENT METAR :
  • 261220Z 11003KT 070V190 9999 BKN014 08/05 Q1027 BECMG BKN015

EXPIRED METARs :
  • 261150Z VRB02KT 9999 BKN013 08/04 Q1027 TEMPO BKN015
  • 261120Z 17004KT 140V240 9999 BKN011 08/05 Q1028 TEMPO BKN015
  • 261050Z 16004KT 130V200 9999 BKN011 07/05 Q1028 TEMPO BKN015
  • 261020Z VRB04KT 9999 BKN010 07/04 Q1028 TEMPO BKN015
  • 260950Z 16003KT 090V200 9999 BKN010 07/04 Q1027 TEMPO BKN015

TAF TAF EDDW
Valid from the 26 at 12:00 until the 27 at 12:00 UTC


261100Z 2612/2712 VRB03KT 9999 BKN012
BECMG 2612/2613 SCT020
BECMG 2700/2703 3000 BR
PROB30
TEMPO 2702/2707 0700 FG BKN002
BECMG 2706/2709 9999
No reported NOTAMs for that airfield.



MET'MAP, your aeronautical weather chart ! - Copyright ORBIFLY December 2007 - Disclaimer

ORBIFLY MET'MAP TEAM :

Programming & Development : Alexandra Zaïnal
Concept & Development : Baudouin d'Aumeries
Co-Development & Prog : Marc-Olivier Méhu
Technical & hardware support : Manuel Goepfert

Contact : metmap@orbifly.com




SOURCES & CREDITS :

   NOAA